sensor_id;sensor_type;location;lat;lon;timestamp;P1;durP1;ratioP1;P2;durP2;ratioP2
10872;SDS011;34586;53.616;10.032;2023-07-13T00:01:45;6.70;;;3.90;;
10872;SDS011;34586;53.616;10.032;2023-07-13T00:04:14;8.67;;;3.90;;
10872;SDS011;34586;53.616;10.032;2023-07-13T00:06:41;4.73;;;3.60;;
10872;SDS011;34586;53.616;10.032;2023-07-13T00:09:09;5.70;;;3.70;;
10872;SDS011;34586;53.616;10.032;2023-07-13T00:11:37;4.47;;;3.93;;
10872;SDS011;34586;53.616;10.032;2023-07-13T00:14:03;6.53;;;4.07;;
10872;SDS011;34586;53.616;10.032;2023-07-13T00:16:29;7.37;;;3.77;;
10872;SDS011;34586;53.616;10.032;2023-07-13T00:18:54;6.53;;;3.87;;
10872;SDS011;34586;53.616;10.032;2023-07-13T00:21:20;7.40;;;4.30;;
10872;SDS011;34586;53.616;10.032;2023-07-13T00:23:46;8.57;;;3.80;;
10872;SDS011;34586;53.616;10.032;2023-07-13T00:26:11;7.13;;;4.27;;
10872;SDS011;34586;53.616;10.032;2023-07-13T00:28:38;4.80;;;3.80;;
10872;SDS011;34586;53.616;10.032;2023-07-13T00:31:04;6.17;;;4.03;;
10872;SDS011;34586;53.616;10.032;2023-07-13T00:33:30;4.53;;;3.90;;
10872;SDS011;34586;53.616;10.032;2023-07-13T00:35:56;5.33;;;3.60;;
10872;SDS011;34586;53.616;10.032;2023-07-13T00:38:22;5.20;;;4.03;;
10872;SDS011;34586;53.616;10.032;2023-07-13T00:40:48;8.03;;;3.60;;
10872;SDS011;34586;53.616;10.032;2023-07-13T00:43:16;8.00;;;3.60;;
10872;SDS011;34586;53.616;10.032;2023-07-13T00:48:19;4.33;;;3.90;;
10872;SDS011;34586;53.616;10.032;2023-07-13T00:50:48;7.83;;;4.57;;
10872;SDS011;34586;53.616;10.032;2023-07-13T00:53:17;5.67;;;3.80;;
10872;SDS011;34586;53.616;10.032;2023-07-13T00:55:44;4.27;;;3.47;;
10872;SDS011;34586;53.616;10.032;2023-07-13T00:58:11;4.53;;;3.77;;
10872;SDS011;34586;53.616;10.032;2023-07-13T01:00:37;5.63;;;3.80;;
10872;SDS011;34586;53.616;10.032;2023-07-13T01:03:05;4.63;;;4.10;;
10872;SDS011;34586;53.616;10.032;2023-07-13T01:05:32;4.00;;;3.70;;
10872;SDS011;34586;53.616;10.032;2023-07-13T01:07:59;4.60;;;4.07;;
10872;SDS011;34586;53.616;10.032;2023-07-13T01:10:26;5.10;;;4.00;;
10872;SDS011;34586;53.616;10.032;2023-07-13T01:12:52;5.80;;;3.87;;
10872;SDS011;34586;53.616;10.032;2023-07-13T01:18:03;6.00;;;4.20;;
10872;SDS011;34586;53.616;10.032;2023-07-13T01:20:34;6.30;;;4.17;;
10872;SDS011;34586;53.616;10.032;2023-07-13T01:23:01;4.30;;;3.70;;
10872;SDS011;34586;53.616;10.032;2023-07-13T01:25:31;4.20;;;3.90;;
10872;SDS011;34586;53.616;10.032;2023-07-13T01:27:57;3.63;;;3.33;;
10872;SDS011;34586;53.616;10.032;2023-07-13T01:30:22;5.27;;;3.73;;
10872;SDS011;34586;53.616;10.032;2023-07-13T01:32:48;4.40;;;3.87;;
10872;SDS011;34586;53.616;10.032;2023-07-13T01:35:13;4.80;;;3.57;;
10872;SDS011;34586;53.616;10.032;2023-07-13T01:37:39;5.37;;;3.80;;
10872;SDS011;34586;53.616;10.032;2023-07-13T01:40:05;5.47;;;3.70;;
10872;SDS011;34586;53.616;10.032;2023-07-13T01:42:31;4.47;;;4.03;;
10872;SDS011;34586;53.616;10.032;2023-07-13T01:44:56;6.13;;;3.70;;
10872;SDS011;34586;53.616;10.032;2023-07-13T01:47:22;5.43;;;4.03;;
10872;SDS011;34586;53.616;10.032;2023-07-13T01:49:48;6.97;;;4.47;;
10872;SDS011;34586;53.616;10.032;2023-07-13T01:52:16;4.87;;;3.83;;
10872;SDS011;34586;53.616;10.032;2023-07-13T01:54:42;6.23;;;4.23;;
10872;SDS011;34586;53.616;10.032;2023-07-13T01:57:08;5.80;;;4.00;;
10872;SDS011;34586;53.616;10.032;2023-07-13T01:59:33;4.47;;;4.07;;
10872;SDS011;34586;53.616;10.032;2023-07-13T02:01:59;5.70;;;3.83;;
10872;SDS011;34586;53.616;10.032;2023-07-13T02:04:24;8.60;;;3.60;;
10872;SDS011;34586;53.616;10.032;2023-07-13T02:06:50;5.60;;;4.17;;
10872;SDS011;34586;53.616;10.032;2023-07-13T02:09:16;4.77;;;3.80;;
10872;SDS011;34586;53.616;10.032;2023-07-13T02:11:41;4.77;;;4.10;;
10872;SDS011;34586;53.616;10.032;2023-07-13T02:14:07;6.17;;;4.27;;
10872;SDS011;34586;53.616;10.032;2023-07-13T02:16:32;4.47;;;3.93;;
10872;SDS011;34586;53.616;10.032;2023-07-13T02:18:58;5.77;;;4.70;;
10872;SDS011;34586;53.616;10.032;2023-07-13T02:21:25;4.73;;;4.33;;
10872;SDS011;34586;53.616;10.032;2023-07-13T02:23:51;5.33;;;3.70;;
10872;SDS011;34586;53.616;10.032;2023-07-13T02:26:17;4.77;;;4.37;;
10872;SDS011;34586;53.616;10.032;2023-07-13T02:28:43;4.93;;;4.43;;
10872;SDS011;34586;53.616;10.032;2023-07-13T02:31:10;5.63;;;4.60;;
10872;SDS011;34586;53.616;10.032;2023-07-13T02:33:38;5.23;;;4.27;;
10872;SDS011;34586;53.616;10.032;2023-07-13T02:36:04;5.07;;;4.60;;
10872;SDS011;34586;53.616;10.032;2023-07-13T02:38:30;7.93;;;4.37;;
10872;SDS011;34586;53.616;10.032;2023-07-13T02:40:58;5.80;;;4.53;;
10872;SDS011;34586;53.616;10.032;2023-07-13T02:43:24;5.20;;;4.70;;
10872;SDS011;34586;53.616;10.032;2023-07-13T02:45:50;4.90;;;4.53;;
10872;SDS011;34586;53.616;10.032;2023-07-13T02:48:16;6.57;;;5.43;;
10872;SDS011;34586;53.616;10.032;2023-07-13T02:50:42;4.90;;;4.50;;
10872;SDS011;34586;53.616;10.032;2023-07-13T02:53:08;6.03;;;5.17;;
10872;SDS011;34586;53.616;10.032;2023-07-13T02:55:34;5.70;;;5.03;;
10872;SDS011;34586;53.616;10.032;2023-07-13T02:58:00;5.40;;;4.90;;
10872;SDS011;34586;53.616;10.032;2023-07-13T03:00:26;6.03;;;5.23;;
10872;SDS011;34586;53.616;10.032;2023-07-13T03:02:52;7.83;;;4.80;;
10872;SDS011;34586;53.616;10.032;2023-07-13T03:05:18;5.73;;;5.20;;
10872;SDS011;34586;53.616;10.032;2023-07-13T03:07:44;8.03;;;5.60;;
10872;SDS011;34586;53.616;10.032;2023-07-13T03:10:09;5.50;;;5.07;;
10872;SDS011;34586;53.616;10.032;2023-07-13T03:12:35;5.97;;;5.40;;
10872;SDS011;34586;53.616;10.032;2023-07-13T03:15:00;6.10;;;5.50;;
10872;SDS011;34586;53.616;10.032;2023-07-13T03:17:26;6.50;;;5.20;;
10872;SDS011;34586;53.616;10.032;2023-07-13T03:19:52;9.67;;;5.87;;
10872;SDS011;34586;53.616;10.032;2023-07-13T03:22:17;6.67;;;5.33;;
10872;SDS011;34586;53.616;10.032;2023-07-13T03:24:43;7.47;;;5.60;;
10872;SDS011;34586;53.616;10.032;2023-07-13T03:27:09;8.47;;;5.40;;
10872;SDS011;34586;53.616;10.032;2023-07-13T03:29:35;6.10;;;5.50;;
10872;SDS011;34586;53.616;10.032;2023-07-13T03:32:01;8.27;;;6.13;;
10872;SDS011;34586;53.616;10.032;2023-07-13T03:34:27;6.20;;;5.43;;
10872;SDS011;34586;53.616;10.032;2023-07-13T03:36:56;5.97;;;5.30;;
10872;SDS011;34586;53.616;10.032;2023-07-13T03:39:21;5.70;;;5.20;;
10872;SDS011;34586;53.616;10.032;2023-07-13T03:41:47;5.93;;;5.33;;
10872;SDS011;34586;53.616;10.032;2023-07-13T03:44:15;6.23;;;5.63;;
10872;SDS011;34586;53.616;10.032;2023-07-13T03:46:41;6.43;;;5.83;;
10872;SDS011;34586;53.616;10.032;2023-07-13T03:49:07;8.60;;;5.80;;
10872;SDS011;34586;53.616;10.032;2023-07-13T03:51:33;6.60;;;5.97;;
10872;SDS011;34586;53.616;10.032;2023-07-13T03:53:59;6.87;;;5.40;;
10872;SDS011;34586;53.616;10.032;2023-07-13T03:56:24;6.50;;;5.93;;
10872;SDS011;34586;53.616;10.032;2023-07-13T03:58:50;9.30;;;6.20;;
10872;SDS011;34586;53.616;10.032;2023-07-13T04:01:17;11.80;;;6.20;;
10872;SDS011;34586;53.616;10.032;2023-07-13T04:03:44;7.93;;;5.90;;
10872;SDS011;34586;53.616;10.032;2023-07-13T04:06:21;6.47;;;5.70;;
10872;SDS011;34586;53.616;10.032;2023-07-13T04:08:51;8.37;;;5.27;;
10872;SDS011;34586;53.616;10.032;2023-07-13T04:11:19;8.53;;;6.17;;
10872;SDS011;34586;53.616;10.032;2023-07-13T04:13:45;6.10;;;5.60;;
10872;SDS011;34586;53.616;10.032;2023-07-13T04:16:12;6.00;;;5.10;;
10872;SDS011;34586;53.616;10.032;2023-07-13T04:18:38;9.93;;;5.30;;
10872;SDS011;34586;53.616;10.032;2023-07-13T04:21:04;7.47;;;4.37;;
10872;SDS011;34586;53.616;10.032;2023-07-13T04:23:30;5.97;;;4.70;;
10872;SDS011;34586;53.616;10.032;2023-07-13T04:25:55;5.30;;;4.67;;
10872;SDS011;34586;53.616;10.032;2023-07-13T04:28:22;8.30;;;4.20;;
10872;SDS011;34586;53.616;10.032;2023-07-13T04:30:49;8.07;;;4.20;;
10872;SDS011;34586;53.616;10.032;2023-07-13T04:33:15;7.83;;;4.13;;
10872;SDS011;34586;53.616;10.032;2023-07-13T04:35:51;10.87;;;3.90;;
10872;SDS011;34586;53.616;10.032;2023-07-13T04:38:24;5.63;;;3.80;;
10872;SDS011;34586;53.616;10.032;2023-07-13T04:40:55;11.53;;;4.03;;
10872;SDS011;34586;53.616;10.032;2023-07-13T04:43:22;8.87;;;3.60;;
10872;SDS011;34586;53.616;10.032;2023-07-13T04:45:49;9.17;;;3.77;;
10872;SDS011;34586;53.616;10.032;2023-07-13T04:48:16;7.37;;;3.70;;
10872;SDS011;34586;53.616;10.032;2023-07-13T04:50:41;8.57;;;3.73;;
10872;SDS011;34586;53.616;10.032;2023-07-13T04:53:08;11.93;;;4.17;;
10872;SDS011;34586;53.616;10.032;2023-07-13T04:55:35;6.47;;;3.13;;
10872;SDS011;34586;53.616;10.032;2023-07-13T04:58:01;5.57;;;3.60;;
10872;SDS011;34586;53.616;10.032;2023-07-13T05:00:28;11.93;;;4.03;;
10872;SDS011;34586;53.616;10.032;2023-07-13T05:02:55;8.03;;;3.27;;
10872;SDS011;34586;53.616;10.032;2023-07-13T05:05:22;7.00;;;3.63;;
10872;SDS011;34586;53.616;10.032;2023-07-13T05:07:51;8.87;;;3.83;;
10872;SDS011;34586;53.616;10.032;2023-07-13T05:10:18;10.20;;;3.67;;
10872;SDS011;34586;53.616;10.032;2023-07-13T05:12:44;12.83;;;3.80;;
10872;SDS011;34586;53.616;10.032;2023-07-13T05:15:10;8.13;;;3.50;;
10872;SDS011;34586;53.616;10.032;2023-07-13T05:17:36;9.93;;;3.97;;
10872;SDS011;34586;53.616;10.032;2023-07-13T05:20:04;7.23;;;3.10;;
10872;SDS011;34586;53.616;10.032;2023-07-13T05:22:30;5.90;;;2.90;;
10872;SDS011;34586;53.616;10.032;2023-07-13T05:24:56;5.37;;;3.13;;
10872;SDS011;34586;53.616;10.032;2023-07-13T05:27:22;6.97;;;3.17;;
10872;SDS011;34586;53.616;10.032;2023-07-13T05:29:48;12.53;;;3.77;;
10872;SDS011;34586;53.616;10.032;2023-07-13T05:32:14;11.43;;;3.73;;
10872;SDS011;34586;53.616;10.032;2023-07-13T05:34:39;10.33;;;3.03;;
10872;SDS011;34586;53.616;10.032;2023-07-13T05:37:05;13.17;;;3.50;;
10872;SDS011;34586;53.616;10.032;2023-07-13T05:39:31;8.67;;;3.60;;
10872;SDS011;34586;53.616;10.032;2023-07-13T05:41:56;12.10;;;3.63;;
10872;SDS011;34586;53.616;10.032;2023-07-13T05:44:22;11.67;;;3.47;;
10872;SDS011;34586;53.616;10.032;2023-07-13T05:46:48;10.43;;;3.17;;
10872;SDS011;34586;53.616;10.032;2023-07-13T05:49:13;12.80;;;3.70;;
10872;SDS011;34586;53.616;10.032;2023-07-13T05:51:39;7.80;;;3.37;;
10872;SDS011;34586;53.616;10.032;2023-07-13T05:54:04;8.27;;;2.93;;
10872;SDS011;34586;53.616;10.032;2023-07-13T05:56:30;11.23;;;3.63;;
10872;SDS011;34586;53.616;10.032;2023-07-13T05:58:56;10.17;;;3.90;;
10872;SDS011;34586;53.616;10.032;2023-07-13T06:01:21;12.50;;;4.10;;
10872;SDS011;34586;53.616;10.032;2023-07-13T06:03:48;13.90;;;4.40;;
10872;SDS011;34586;53.616;10.032;2023-07-13T06:06:14;8.73;;;3.60;;
10872;SDS011;34586;53.616;10.032;2023-07-13T06:08:41;7.87;;;3.27;;
10872;SDS011;34586;53.616;10.032;2023-07-13T06:11:08;10.70;;;3.47;;
10872;SDS011;34586;53.616;10.032;2023-07-13T06:13:38;11.67;;;3.83;;
10872;SDS011;34586;53.616;10.032;2023-07-13T06:16:04;10.77;;;3.30;;
10872;SDS011;34586;53.616;10.032;2023-07-13T06:18:31;12.87;;;3.00;;
10872;SDS011;34586;53.616;10.032;2023-07-13T06:20:57;11.10;;;3.27;;
10872;SDS011;34586;53.616;10.032;2023-07-13T06:23:23;8.57;;;2.90;;
10872;SDS011;34586;53.616;10.032;2023-07-13T06:25:49;8.13;;;3.17;;
10872;SDS011;34586;53.616;10.032;2023-07-13T06:28:14;9.50;;;3.33;;
10872;SDS011;34586;53.616;10.032;2023-07-13T06:30:40;9.27;;;3.10;;
10872;SDS011;34586;53.616;10.032;2023-07-13T06:33:05;9.03;;;3.00;;
10872;SDS011;34586;53.616;10.032;2023-07-13T06:35:31;9.57;;;2.90;;
10872;SDS011;34586;53.616;10.032;2023-07-13T06:37:57;7.13;;;2.47;;
10872;SDS011;34586;53.616;10.032;2023-07-13T06:40:22;8.73;;;2.47;;
10872;SDS011;34586;53.616;10.032;2023-07-13T06:42:48;9.47;;;3.33;;
10872;SDS011;34586;53.616;10.032;2023-07-13T06:45:14;7.80;;;2.80;;
10872;SDS011;34586;53.616;10.032;2023-07-13T06:47:39;8.63;;;2.80;;
10872;SDS011;34586;53.616;10.032;2023-07-13T06:50:05;7.87;;;3.07;;
10872;SDS011;34586;53.616;10.032;2023-07-13T06:52:31;9.43;;;2.70;;
10872;SDS011;34586;53.616;10.032;2023-07-13T06:54:56;10.97;;;2.80;;
10872;SDS011;34586;53.616;10.032;2023-07-13T06:57:22;9.43;;;2.90;;
10872;SDS011;34586;53.616;10.032;2023-07-13T06:59:48;8.67;;;2.37;;
10872;SDS011;34586;53.616;10.032;2023-07-13T07:02:13;10.13;;;3.00;;
10872;SDS011;34586;53.616;10.032;2023-07-13T07:04:39;5.53;;;2.03;;
10872;SDS011;34586;53.616;10.032;2023-07-13T07:07:04;8.97;;;2.60;;
10872;SDS011;34586;53.616;10.032;2023-07-13T07:09:30;8.80;;;2.60;;
10872;SDS011;34586;53.616;10.032;2023-07-13T07:11:56;7.70;;;2.83;;
10872;SDS011;34586;53.616;10.032;2023-07-13T07:14:22;9.20;;;2.50;;
10872;SDS011;34586;53.616;10.032;2023-07-13T07:16:48;7.57;;;2.20;;
10872;SDS011;34586;53.616;10.032;2023-07-13T07:19:15;11.73;;;2.63;;
10872;SDS011;34586;53.616;10.032;2023-07-13T07:21:41;7.73;;;2.00;;
10872;SDS011;34586;53.616;10.032;2023-07-13T07:24:06;7.20;;;2.63;;
10872;SDS011;34586;53.616;10.032;2023-07-13T07:26:32;4.37;;;2.30;;
10872;SDS011;34586;53.616;10.032;2023-07-13T07:28:58;9.47;;;2.40;;
10872;SDS011;34586;53.616;10.032;2023-07-13T07:31:24;6.70;;;2.30;;
10872;SDS011;34586;53.616;10.032;2023-07-13T07:33:49;7.80;;;2.37;;
10872;SDS011;34586;53.616;10.032;2023-07-13T07:36:16;10.63;;;2.37;;
10872;SDS011;34586;53.616;10.032;2023-07-13T07:38:42;8.50;;;2.50;;
10872;SDS011;34586;53.616;10.032;2023-07-13T07:41:08;8.27;;;2.47;;
10872;SDS011;34586;53.616;10.032;2023-07-13T07:43:33;11.57;;;2.57;;
10872;SDS011;34586;53.616;10.032;2023-07-13T07:45:59;8.23;;;2.07;;
10872;SDS011;34586;53.616;10.032;2023-07-13T07:48:24;6.70;;;2.03;;
10872;SDS011;34586;53.616;10.032;2023-07-13T07:50:50;6.63;;;2.50;;
10872;SDS011;34586;53.616;10.032;2023-07-13T07:53:16;7.00;;;1.93;;
10872;SDS011;34586;53.616;10.032;2023-07-13T07:55:41;7.20;;;1.90;;
10872;SDS011;34586;53.616;10.032;2023-07-13T07:58:07;7.57;;;2.10;;
10872;SDS011;34586;53.616;10.032;2023-07-13T08:00:33;6.10;;;2.00;;
10872;SDS011;34586;53.616;10.032;2023-07-13T08:03:00;6.83;;;2.00;;
10872;SDS011;34586;53.616;10.032;2023-07-13T08:05:26;10.33;;;2.33;;
10872;SDS011;34586;53.616;10.032;2023-07-13T08:07:52;8.80;;;2.03;;
10872;SDS011;34586;53.616;10.032;2023-07-13T08:10:18;9.73;;;1.73;;
10872;SDS011;34586;53.616;10.032;2023-07-13T08:12:44;8.23;;;2.43;;
10872;SDS011;34586;53.616;10.032;2023-07-13T08:15:12;9.37;;;2.00;;
10872;SDS011;34586;53.616;10.032;2023-07-13T08:17:39;5.00;;;1.80;;
10872;SDS011;34586;53.616;10.032;2023-07-13T08:20:05;6.67;;;1.80;;
10872;SDS011;34586;53.616;10.032;2023-07-13T08:22:32;8.50;;;1.70;;
10872;SDS011;34586;53.616;10.032;2023-07-13T08:24:58;6.30;;;1.83;;
10872;SDS011;34586;53.616;10.032;2023-07-13T08:27:25;5.10;;;1.60;;
10872;SDS011;34586;53.616;10.032;2023-07-13T08:29:51;7.93;;;2.00;;
10872;SDS011;34586;53.616;10.032;2023-07-13T08:32:18;4.97;;;1.40;;
10872;SDS011;34586;53.616;10.032;2023-07-13T08:34:45;7.10;;;2.00;;
10872;SDS011;34586;53.616;10.032;2023-07-13T08:37:12;10.50;;;1.83;;
10872;SDS011;34586;53.616;10.032;2023-07-13T08:39:38;4.03;;;1.40;;
10872;SDS011;34586;53.616;10.032;2023-07-13T08:42:05;8.23;;;1.67;;
10872;SDS011;34586;53.616;10.032;2023-07-13T08:47:19;4.87;;;1.30;;
10872;SDS011;34586;53.616;10.032;2023-07-13T08:49:47;5.47;;;1.70;;
10872;SDS011;34586;53.616;10.032;2023-07-13T08:52:21;5.30;;;1.67;;
10872;SDS011;34586;53.616;10.032;2023-07-13T08:55:11;4.90;;;1.60;;
10872;SDS011;34586;53.616;10.032;2023-07-13T08:58:05;9.30;;;1.87;;
10872;SDS011;34586;53.616;10.032;2023-07-13T09:00:42;7.37;;;1.43;;
10872;SDS011;34586;53.616;10.032;2023-07-13T09:03:19;6.00;;;1.80;;
10872;SDS011;34586;53.616;10.032;2023-07-13T09:05:49;7.30;;;2.00;;
10872;SDS011;34586;53.616;10.032;2023-07-13T09:08:27;6.20;;;1.77;;
10872;SDS011;34586;53.616;10.032;2023-07-13T09:11:10;6.37;;;1.93;;
10872;SDS011;34586;53.616;10.032;2023-07-13T09:13:58;3.70;;;1.40;;
10872;SDS011;34586;53.616;10.032;2023-07-13T09:16:46;6.20;;;1.70;;
10872;SDS011;34586;53.616;10.032;2023-07-13T09:19:21;5.17;;;1.70;;
10872;SDS011;34586;53.616;10.032;2023-07-13T09:21:52;5.43;;;1.57;;
10872;SDS011;34586;53.616;10.032;2023-07-13T09:27:15;9.53;;;1.73;;
10872;SDS011;34586;53.616;10.032;2023-07-13T09:29:54;8.10;;;1.53;;
10872;SDS011;34586;53.616;10.032;2023-07-13T09:32:26;4.97;;;1.80;;
10872;SDS011;34586;53.616;10.032;2023-07-13T09:34:54;4.70;;;1.73;;
10872;SDS011;34586;53.616;10.032;2023-07-13T09:37:24;6.37;;;1.47;;
10872;SDS011;34586;53.616;10.032;2023-07-13T09:39:55;4.63;;;1.53;;
10872;SDS011;34586;53.616;10.032;2023-07-13T09:42:23;7.97;;;1.73;;
10872;SDS011;34586;53.616;10.032;2023-07-13T09:47:23;15.30;;;1.80;;
10872;SDS011;34586;53.616;10.032;2023-07-13T09:49:59;3.90;;;1.60;;
10872;SDS011;34586;53.616;10.032;2023-07-13T09:52:26;8.03;;;1.77;;
10872;SDS011;34586;53.616;10.032;2023-07-13T09:54:53;3.23;;;1.40;;
10872;SDS011;34586;53.616;10.032;2023-07-13T09:57:24;5.70;;;1.97;;
10872;SDS011;34586;53.616;10.032;2023-07-13T09:59:52;3.90;;;1.50;;
10872;SDS011;34586;53.616;10.032;2023-07-13T10:02:25;4.03;;;1.63;;
10872;SDS011;34586;53.616;10.032;2023-07-13T10:04:58;3.50;;;1.43;;
10872;SDS011;34586;53.616;10.032;2023-07-13T10:07:29;3.67;;;1.33;;
10872;SDS011;34586;53.616;10.032;2023-07-13T10:09:59;7.03;;;1.57;;
10872;SDS011;34586;53.616;10.032;2023-07-13T10:12:26;3.57;;;1.27;;
10872;SDS011;34586;53.616;10.032;2023-07-13T10:14:55;4.27;;;1.47;;
10872;SDS011;34586;53.616;10.032;2023-07-13T10:17:31;4.23;;;1.37;;
10872;SDS011;34586;53.616;10.032;2023-07-13T10:19:59;4.17;;;1.50;;
10872;SDS011;34586;53.616;10.032;2023-07-13T10:25:24;2.80;;;1.13;;
10872;SDS011;34586;53.616;10.032;2023-07-13T10:27:52;3.70;;;1.33;;
10872;SDS011;34586;53.616;10.032;2023-07-13T10:30:25;4.50;;;1.53;;
10872;SDS011;34586;53.616;10.032;2023-07-13T10:33:00;4.57;;;1.70;;
10872;SDS011;34586;53.616;10.032;2023-07-13T10:35:28;5.93;;;1.27;;
10872;SDS011;34586;53.616;10.032;2023-07-13T10:37:57;5.33;;;1.70;;
10872;SDS011;34586;53.616;10.032;2023-07-13T10:40:42;3.67;;;1.83;;
10872;SDS011;34586;53.616;10.032;2023-07-13T10:43:19;7.03;;;1.80;;
10872;SDS011;34586;53.616;10.032;2023-07-13T10:45:45;6.87;;;1.50;;
10872;SDS011;34586;53.616;10.032;2023-07-13T10:48:15;4.93;;;1.70;;
10872;SDS011;34586;53.616;10.032;2023-07-13T10:50:42;4.03;;;1.20;;
10872;SDS011;34586;53.616;10.032;2023-07-13T10:53:21;2.77;;;1.20;;
10872;SDS011;34586;53.616;10.032;2023-07-13T11:00:56;6.93;;;1.40;;
10872;SDS011;34586;53.616;10.032;2023-07-13T11:03:26;2.80;;;0.90;;
10872;SDS011;34586;53.616;10.032;2023-07-13T11:06:04;5.30;;;1.23;;
10872;SDS011;34586;53.616;10.032;2023-07-13T11:08:38;4.27;;;1.40;;
10872;SDS011;34586;53.616;10.032;2023-07-13T11:13:55;2.77;;;1.00;;
10872;SDS011;34586;53.616;10.032;2023-07-13T11:18:50;3.63;;;1.33;;
10872;SDS011;34586;53.616;10.032;2023-07-13T11:21:21;2.53;;;0.90;;
10872;SDS011;34586;53.616;10.032;2023-07-13T11:23:51;3.03;;;1.20;;
10872;SDS011;34586;53.616;10.032;2023-07-13T11:31:43;6.90;;;1.17;;
10872;SDS011;34586;53.616;10.032;2023-07-13T11:34:19;2.40;;;1.10;;
10872;SDS011;34586;53.616;10.032;2023-07-13T11:36:50;3.80;;;1.30;;
10872;SDS011;34586;53.616;10.032;2023-07-13T11:39:19;5.60;;;1.30;;
10872;SDS011;34586;53.616;10.032;2023-07-13T11:41:50;2.13;;;1.23;;
10872;SDS011;34586;53.616;10.032;2023-07-13T11:44:26;3.90;;;0.80;;
10872;SDS011;34586;53.616;10.032;2023-07-13T11:47:00;2.53;;;1.03;;
10872;SDS011;34586;53.616;10.032;2023-07-13T11:49:40;3.97;;;0.97;;
10872;SDS011;34586;53.616;10.032;2023-07-13T11:52:11;3.00;;;1.20;;
10872;SDS011;34586;53.616;10.032;2023-07-13T11:54:48;3.33;;;1.10;;
10872;SDS011;34586;53.616;10.032;2023-07-13T11:57:26;4.00;;;1.13;;
10872;SDS011;34586;53.616;10.032;2023-07-13T11:59:56;4.43;;;1.20;;
10872;SDS011;34586;53.616;10.032;2023-07-13T12:02:29;4.10;;;1.53;;
10872;SDS011;34586;53.616;10.032;2023-07-13T12:04:58;2.73;;;0.90;;
10872;SDS011;34586;53.616;10.032;2023-07-13T12:07:27;8.07;;;1.50;;
10872;SDS011;34586;53.616;10.032;2023-07-13T12:10:00;2.53;;;1.00;;
10872;SDS011;34586;53.616;10.032;2023-07-13T12:12:56;2.23;;;0.90;;
10872;SDS011;34586;53.616;10.032;2023-07-13T12:15:47;2.70;;;1.10;;
10872;SDS011;34586;53.616;10.032;2023-07-13T12:18:20;6.80;;;1.10;;
10872;SDS011;34586;53.616;10.032;2023-07-13T12:20:48;4.60;;;1.37;;
10872;SDS011;34586;53.616;10.032;2023-07-13T12:23:25;10.53;;;2.37;;
10872;SDS011;34586;53.616;10.032;2023-07-13T12:25:53;9.97;;;2.33;;
10872;SDS011;34586;53.616;10.032;2023-07-13T12:28:20;6.77;;;1.77;;
10872;SDS011;34586;53.616;10.032;2023-07-13T12:30:47;7.60;;;2.37;;
10872;SDS011;34586;53.616;10.032;2023-07-13T12:33:14;5.03;;;2.00;;
10872;SDS011;34586;53.616;10.032;2023-07-13T12:35:43;4.80;;;2.00;;
10872;SDS011;34586;53.616;10.032;2023-07-13T12:38:12;5.63;;;2.23;;
10872;SDS011;34586;53.616;10.032;2023-07-13T12:40:37;3.40;;;1.67;;
10872;SDS011;34586;53.616;10.032;2023-07-13T12:43:05;4.30;;;1.90;;
10872;SDS011;34586;53.616;10.032;2023-07-13T12:45:39;2.57;;;1.70;;
10872;SDS011;34586;53.616;10.032;2023-07-13T12:48:25;3.60;;;1.70;;
10872;SDS011;34586;53.616;10.032;2023-07-13T12:50:51;3.40;;;1.50;;
10872;SDS011;34586;53.616;10.032;2023-07-13T12:53:20;3.20;;;1.83;;
10872;SDS011;34586;53.616;10.032;2023-07-13T12:55:54;4.53;;;2.00;;
10872;SDS011;34586;53.616;10.032;2023-07-13T13:00:55;2.60;;;1.40;;
10872;SDS011;34586;53.616;10.032;2023-07-13T13:03:29;5.60;;;1.70;;
10872;SDS011;34586;53.616;10.032;2023-07-13T13:05:58;4.40;;;1.40;;
10872;SDS011;34586;53.616;10.032;2023-07-13T13:08:51;5.93;;;1.30;;
10872;SDS011;34586;53.616;10.032;2023-07-13T13:11:19;2.90;;;1.17;;
10872;SDS011;34586;53.616;10.032;2023-07-13T13:13:47;4.20;;;1.33;;
10872;SDS011;34586;53.616;10.032;2023-07-13T13:16:20;5.20;;;1.27;;
10872;SDS011;34586;53.616;10.032;2023-07-13T13:19:01;2.60;;;1.30;;
10872;SDS011;34586;53.616;10.032;2023-07-13T13:21:42;3.33;;;1.20;;
10872;SDS011;34586;53.616;10.032;2023-07-13T13:24:11;2.57;;;0.90;;
10872;SDS011;34586;53.616;10.032;2023-07-13T13:26:37;3.33;;;0.90;;
10872;SDS011;34586;53.616;10.032;2023-07-13T13:29:09;1.70;;;0.83;;
10872;SDS011;34586;53.616;10.032;2023-07-13T13:31:41;2.47;;;1.00;;
10872;SDS011;34586;53.616;10.032;2023-07-13T13:34:11;2.20;;;1.10;;
10872;SDS011;34586;53.616;10.032;2023-07-13T13:36:39;2.20;;;1.10;;
10872;SDS011;34586;53.616;10.032;2023-07-13T13:39:15;2.20;;;1.00;;
10872;SDS011;34586;53.616;10.032;2023-07-13T13:41:43;1.47;;;0.80;;
10872;SDS011;34586;53.616;10.032;2023-07-13T13:44:09;1.17;;;0.80;;
10872;SDS011;34586;53.616;10.032;2023-07-13T13:46:35;3.13;;;1.00;;
10872;SDS011;34586;53.616;10.032;2023-07-13T13:49:01;1.87;;;0.80;;
10872;SDS011;34586;53.616;10.032;2023-07-13T13:51:27;4.73;;;1.10;;
10872;SDS011;34586;53.616;10.032;2023-07-13T13:53:54;2.27;;;0.90;;
10872;SDS011;34586;53.616;10.032;2023-07-13T13:56:19;2.23;;;1.00;;
10872;SDS011;34586;53.616;10.032;2023-07-13T13:58:45;2.37;;;1.10;;
10872;SDS011;34586;53.616;10.032;2023-07-13T14:01:20;4.03;;;1.27;;
10872;SDS011;34586;53.616;10.032;2023-07-13T14:03:49;4.67;;;1.00;;
10872;SDS011;34586;53.616;10.032;2023-07-13T14:06:16;3.10;;;0.90;;
10872;SDS011;34586;53.616;10.032;2023-07-13T14:08:42;1.57;;;1.10;;
10872;SDS011;34586;53.616;10.032;2023-07-13T14:11:12;1.97;;;0.83;;
10872;SDS011;34586;53.616;10.032;2023-07-13T14:13:44;3.37;;;0.97;;
10872;SDS011;34586;53.616;10.032;2023-07-13T14:16:17;2.87;;;1.10;;
10872;SDS011;34586;53.616;10.032;2023-07-13T14:18:44;1.40;;;0.83;;
10872;SDS011;34586;53.616;10.032;2023-07-13T14:21:14;1.33;;;1.00;;
10872;SDS011;34586;53.616;10.032;2023-07-13T14:23:43;3.57;;;1.00;;
10872;SDS011;34586;53.616;10.032;2023-07-13T14:26:11;4.30;;;1.20;;
10872;SDS011;34586;53.616;10.032;2023-07-13T14:28:42;1.47;;;1.00;;
10872;SDS011;34586;53.616;10.032;2023-07-13T14:31:11;2.23;;;1.00;;
10872;SDS011;34586;53.616;10.032;2023-07-13T14:33:38;1.03;;;0.80;;
10872;SDS011;34586;53.616;10.032;2023-07-13T14:36:09;1.83;;;0.90;;
10872;SDS011;34586;53.616;10.032;2023-07-13T14:38:48;1.90;;;1.00;;
10872;SDS011;34586;53.616;10.032;2023-07-13T14:41:14;1.30;;;0.80;;
10872;SDS011;34586;53.616;10.032;2023-07-13T14:43:40;1.43;;;0.80;;
10872;SDS011;34586;53.616;10.032;2023-07-13T14:46:07;2.60;;;0.90;;
10872;SDS011;34586;53.616;10.032;2023-07-13T14:48:43;3.27;;;1.10;;
10872;SDS011;34586;53.616;10.032;2023-07-13T14:51:15;2.00;;;1.00;;
10872;SDS011;34586;53.616;10.032;2023-07-13T14:53:41;1.60;;;0.83;;
10872;SDS011;34586;53.616;10.032;2023-07-13T14:56:12;1.90;;;0.93;;
10872;SDS011;34586;53.616;10.032;2023-07-13T14:58:39;1.10;;;1.00;;
10872;SDS011;34586;53.616;10.032;2023-07-13T15:01:08;1.37;;;0.90;;
10872;SDS011;34586;53.616;10.032;2023-07-13T15:03:38;2.40;;;0.90;;
10872;SDS011;34586;53.616;10.032;2023-07-13T15:06:11;2.10;;;1.03;;
10872;SDS011;34586;53.616;10.032;2023-07-13T15:08:38;3.20;;;1.20;;
10872;SDS011;34586;53.616;10.032;2023-07-13T15:11:05;2.73;;;1.07;;
10872;SDS011;34586;53.616;10.032;2023-07-13T15:13:37;2.50;;;1.20;;
10872;SDS011;34586;53.616;10.032;2023-07-13T15:16:04;1.97;;;1.10;;